sensor_id;sensor_type;location;lat;lon;timestamp;P1;durP1;ratioP1;P2;durP2;ratioP2
25990;SDS011;13779;-33.886;151.198;2023-05-10T00:01:35;2.33;;;1.50;;
25990;SDS011;13779;-33.886;151.198;2023-05-10T00:04:06;4.30;;;2.30;;
25990;SDS011;13779;-33.886;151.198;2023-05-10T00:06:36;4.47;;;1.90;;
25990;SDS011;13779;-33.886;151.198;2023-05-10T00:09:07;5.60;;;2.30;;
25990;SDS011;13779;-33.886;151.198;2023-05-10T00:11:37;1.60;;;1.40;;
25990;SDS011;13779;-33.886;151.198;2023-05-10T00:14:08;2.47;;;1.50;;
25990;SDS011;13779;-33.886;151.198;2023-05-10T00:16:38;4.28;;;1.50;;
25990;SDS011;13779;-33.886;151.198;2023-05-10T00:21:39;4.40;;;1.50;;
25990;SDS011;13779;-33.886;151.198;2023-05-10T00:24:10;6.03;;;1.50;;
25990;SDS011;13779;-33.886;151.198;2023-05-10T00:26:40;3.65;;;1.20;;
25990;SDS011;13779;-33.886;151.198;2023-05-10T00:29:11;4.37;;;1.60;;
25990;SDS011;13779;-33.886;151.198;2023-05-10T00:31:41;3.15;;;1.10;;
25990;SDS011;13779;-33.886;151.198;2023-05-10T00:34:12;7.95;;;3.97;;
25990;SDS011;13779;-33.886;151.198;2023-05-10T00:36:43;6.07;;;2.47;;
25990;SDS011;13779;-33.886;151.198;2023-05-10T00:39:14;8.13;;;3.28;;
25990;SDS011;13779;-33.886;151.198;2023-05-10T00:41:44;4.00;;;1.77;;
25990;SDS011;13779;-33.886;151.198;2023-05-10T00:44:14;3.60;;;1.45;;
25990;SDS011;13779;-33.886;151.198;2023-05-10T00:46:45;3.42;;;1.27;;
25990;SDS011;13779;-33.886;151.198;2023-05-10T00:49:15;1.70;;;0.88;;
25990;SDS011;13779;-33.886;151.198;2023-05-10T00:51:46;1.60;;;1.10;;
25990;SDS011;13779;-33.886;151.198;2023-05-10T00:54:17;4.50;;;1.33;;
25990;SDS011;13779;-33.886;151.198;2023-05-10T00:56:47;3.92;;;1.00;;
25990;SDS011;13779;-33.886;151.198;2023-05-10T00:59:17;1.38;;;0.77;;
25990;SDS011;13779;-33.886;151.198;2023-05-10T01:01:48;6.10;;;1.20;;
25990;SDS011;13779;-33.886;151.198;2023-05-10T01:04:19;3.90;;;1.30;;
25990;SDS011;13779;-33.886;151.198;2023-05-10T01:06:54;8.77;;;2.05;;
25990;SDS011;13779;-33.886;151.198;2023-05-10T01:09:24;5.53;;;1.10;;
25990;SDS011;13779;-33.886;151.198;2023-05-10T01:11:55;2.60;;;1.15;;
25990;SDS011;13779;-33.886;151.198;2023-05-10T01:14:26;5.75;;;1.20;;
25990;SDS011;13779;-33.886;151.198;2023-05-10T01:16:56;7.43;;;1.90;;
25990;SDS011;13779;-33.886;151.198;2023-05-10T01:19:27;4.75;;;1.80;;
25990;SDS011;13779;-33.886;151.198;2023-05-10T01:39:10;5.47;;;1.40;;
25990;SDS011;13779;-33.886;151.198;2023-05-10T01:42:08;2.85;;;1.00;;
25990;SDS011;13779;-33.886;151.198;2023-05-10T01:44:46;1.70;;;0.90;;
25990;SDS011;13779;-33.886;151.198;2023-05-10T01:47:39;4.05;;;1.08;;
25990;SDS011;13779;-33.886;151.198;2023-05-10T01:50:17;2.55;;;1.17;;
25990;SDS011;13779;-33.886;151.198;2023-05-10T01:52:52;7.13;;;1.10;;
25990;SDS011;13779;-33.886;151.198;2023-05-10T01:55:25;2.65;;;1.10;;
25990;SDS011;13779;-33.886;151.198;2023-05-10T01:58:07;4.80;;;1.30;;
25990;SDS011;13779;-33.886;151.198;2023-05-10T02:00:40;3.55;;;1.15;;
25990;SDS011;13779;-33.886;151.198;2023-05-10T02:03:14;4.90;;;1.02;;
25990;SDS011;13779;-33.886;151.198;2023-05-10T02:05:45;4.47;;;1.27;;
25990;SDS011;13779;-33.886;151.198;2023-05-10T02:08:17;6.65;;;0.95;;
25990;SDS011;13779;-33.886;151.198;2023-05-10T02:10:50;4.10;;;1.33;;
25990;SDS011;13779;-33.886;151.198;2023-05-10T02:13:23;3.75;;;1.10;;
25990;SDS011;13779;-33.886;151.198;2023-05-10T02:15:54;2.47;;;1.00;;
25990;SDS011;13779;-33.886;151.198;2023-05-10T02:18:26;3.47;;;1.27;;
25990;SDS011;13779;-33.886;151.198;2023-05-10T02:20:56;5.65;;;1.00;;
25990;SDS011;13779;-33.886;151.198;2023-05-10T02:23:29;3.40;;;1.60;;
25990;SDS011;13779;-33.886;151.198;2023-05-10T02:26:00;4.65;;;1.70;;
25990;SDS011;13779;-33.886;151.198;2023-05-10T02:28:31;2.72;;;1.00;;
25990;SDS011;13779;-33.886;151.198;2023-05-10T02:31:04;2.90;;;1.30;;
25990;SDS011;13779;-33.886;151.198;2023-05-10T02:33:40;2.30;;;1.23;;
25990;SDS011;13779;-33.886;151.198;2023-05-10T02:36:11;6.25;;;1.75;;
25990;SDS011;13779;-33.886;151.198;2023-05-10T02:41:13;2.33;;;0.98;;
25990;SDS011;13779;-33.886;151.198;2023-05-10T02:43:44;5.35;;;1.00;;
25990;SDS011;13779;-33.886;151.198;2023-05-10T02:46:19;7.03;;;1.58;;
25990;SDS011;13779;-33.886;151.198;2023-05-10T02:48:49;1.80;;;1.23;;
25990;SDS011;13779;-33.886;151.198;2023-05-10T02:51:19;5.07;;;1.30;;
25990;SDS011;13779;-33.886;151.198;2023-05-10T02:53:56;3.28;;;1.33;;
25990;SDS011;13779;-33.886;151.198;2023-05-10T02:56:31;7.43;;;1.40;;
25990;SDS011;13779;-33.886;151.198;2023-05-10T02:59:04;4.45;;;1.10;;
25990;SDS011;13779;-33.886;151.198;2023-05-10T03:01:34;3.90;;;1.30;;
25990;SDS011;13779;-33.886;151.198;2023-05-10T03:04:05;4.07;;;1.35;;
25990;SDS011;13779;-33.886;151.198;2023-05-10T03:06:35;6.00;;;1.48;;
25990;SDS011;13779;-33.886;151.198;2023-05-10T03:09:05;4.68;;;1.45;;
25990;SDS011;13779;-33.886;151.198;2023-05-10T03:11:55;5.93;;;1.60;;
25990;SDS011;13779;-33.886;151.198;2023-05-10T03:20:35;4.05;;;1.15;;
25990;SDS011;13779;-33.886;151.198;2023-05-10T03:23:19;5.35;;;1.50;;
25990;SDS011;13779;-33.886;151.198;2023-05-10T03:26:05;5.80;;;1.40;;
25990;SDS011;13779;-33.886;151.198;2023-05-10T03:28:36;3.75;;;1.45;;
25990;SDS011;13779;-33.886;151.198;2023-05-10T03:33:45;4.38;;;1.40;;
25990;SDS011;13779;-33.886;151.198;2023-05-10T03:36:19;6.45;;;1.30;;
25990;SDS011;13779;-33.886;151.198;2023-05-10T03:38:49;8.52;;;1.52;;
25990;SDS011;13779;-33.886;151.198;2023-05-10T03:41:19;5.22;;;1.65;;
25990;SDS011;13779;-33.886;151.198;2023-05-10T03:43:50;7.68;;;1.40;;
25990;SDS011;13779;-33.886;151.198;2023-05-10T03:46:20;4.10;;;1.40;;
25990;SDS011;13779;-33.886;151.198;2023-05-10T03:48:50;3.25;;;1.30;;
25990;SDS011;13779;-33.886;151.198;2023-05-10T03:51:20;5.85;;;1.27;;
25990;SDS011;13779;-33.886;151.198;2023-05-10T03:53:50;7.07;;;1.45;;
25990;SDS011;13779;-33.886;151.198;2023-05-10T03:56:20;4.72;;;1.35;;
25990;SDS011;13779;-33.886;151.198;2023-05-10T03:58:50;4.68;;;1.35;;
25990;SDS011;13779;-33.886;151.198;2023-05-10T04:01:20;5.55;;;1.20;;
25990;SDS011;13779;-33.886;151.198;2023-05-10T04:03:51;5.18;;;1.30;;
25990;SDS011;13779;-33.886;151.198;2023-05-10T04:06:21;3.40;;;1.25;;
25990;SDS011;13779;-33.886;151.198;2023-05-10T04:08:52;5.25;;;1.50;;
25990;SDS011;13779;-33.886;151.198;2023-05-10T04:13:53;5.72;;;1.27;;
25990;SDS011;13779;-33.886;151.198;2023-05-10T04:16:24;7.20;;;1.75;;
25990;SDS011;13779;-33.886;151.198;2023-05-10T04:18:54;4.55;;;1.60;;
25990;SDS011;13779;-33.886;151.198;2023-05-10T04:21:25;5.20;;;2.40;;
25990;SDS011;13779;-33.886;151.198;2023-05-10T04:23:56;5.93;;;1.98;;
25990;SDS011;13779;-33.886;151.198;2023-05-10T04:26:27;5.83;;;1.67;;
25990;SDS011;13779;-33.886;151.198;2023-05-10T04:28:57;9.65;;;1.55;;
25990;SDS011;13779;-33.886;151.198;2023-05-10T04:31:28;5.78;;;1.30;;
25990;SDS011;13779;-33.886;151.198;2023-05-10T04:33:59;9.32;;;2.05;;
25990;SDS011;13779;-33.886;151.198;2023-05-10T04:36:29;8.63;;;2.13;;
25990;SDS011;13779;-33.886;151.198;2023-05-10T04:39:02;3.88;;;1.60;;
25990;SDS011;13779;-33.886;151.198;2023-05-10T04:41:33;7.03;;;1.23;;
25990;SDS011;13779;-33.886;151.198;2023-05-10T04:44:04;4.85;;;1.75;;
25990;SDS011;13779;-33.886;151.198;2023-05-10T04:46:34;3.15;;;1.40;;
25990;SDS011;13779;-33.886;151.198;2023-05-10T04:49:05;4.30;;;1.35;;
25990;SDS011;13779;-33.886;151.198;2023-05-10T04:51:36;7.40;;;1.83;;
25990;SDS011;13779;-33.886;151.198;2023-05-10T04:54:06;6.43;;;1.25;;
25990;SDS011;13779;-33.886;151.198;2023-05-10T04:56:37;5.15;;;2.17;;
25990;SDS011;13779;-33.886;151.198;2023-05-10T04:59:07;7.90;;;1.43;;
25990;SDS011;13779;-33.886;151.198;2023-05-10T05:01:38;6.78;;;1.40;;
25990;SDS011;13779;-33.886;151.198;2023-05-10T05:04:10;4.68;;;1.48;;
25990;SDS011;13779;-33.886;151.198;2023-05-10T05:06:40;5.72;;;1.65;;
25990;SDS011;13779;-33.886;151.198;2023-05-10T05:09:10;3.13;;;1.10;;
25990;SDS011;13779;-33.886;151.198;2023-05-10T05:11:40;5.32;;;1.42;;
25990;SDS011;13779;-33.886;151.198;2023-05-10T05:14:10;3.50;;;1.48;;
25990;SDS011;13779;-33.886;151.198;2023-05-10T05:16:41;3.08;;;1.27;;
25990;SDS011;13779;-33.886;151.198;2023-05-10T05:19:11;3.75;;;1.02;;
25990;SDS011;13779;-33.886;151.198;2023-05-10T05:21:41;5.68;;;1.58;;
25990;SDS011;13779;-33.886;151.198;2023-05-10T05:24:11;8.88;;;1.52;;
25990;SDS011;13779;-33.886;151.198;2023-05-10T05:26:41;7.20;;;1.52;;
25990;SDS011;13779;-33.886;151.198;2023-05-10T05:29:11;3.38;;;1.30;;
25990;SDS011;13779;-33.886;151.198;2023-05-10T05:31:43;11.20;;;2.38;;
25990;SDS011;13779;-33.886;151.198;2023-05-10T05:34:13;4.30;;;1.60;;
25990;SDS011;13779;-33.886;151.198;2023-05-10T05:36:43;4.25;;;1.65;;
25990;SDS011;13779;-33.886;151.198;2023-05-10T05:39:13;4.53;;;1.40;;
25990;SDS011;13779;-33.886;151.198;2023-05-10T05:41:43;6.93;;;1.98;;
25990;SDS011;13779;-33.886;151.198;2023-05-10T05:44:14;6.40;;;1.67;;
25990;SDS011;13779;-33.886;151.198;2023-05-10T05:46:44;4.53;;;1.38;;
25990;SDS011;13779;-33.886;151.198;2023-05-10T05:49:14;6.10;;;1.60;;
25990;SDS011;13779;-33.886;151.198;2023-05-10T05:51:44;4.90;;;1.60;;
25990;SDS011;13779;-33.886;151.198;2023-05-10T05:54:15;5.72;;;1.30;;
25990;SDS011;13779;-33.886;151.198;2023-05-10T05:56:46;7.05;;;1.33;;
25990;SDS011;13779;-33.886;151.198;2023-05-10T05:59:16;3.37;;;1.33;;
25990;SDS011;13779;-33.886;151.198;2023-05-10T06:01:46;3.47;;;1.38;;
25990;SDS011;13779;-33.886;151.198;2023-05-10T06:04:16;7.85;;;1.45;;
25990;SDS011;13779;-33.886;151.198;2023-05-10T06:06:47;7.22;;;1.27;;
25990;SDS011;13779;-33.886;151.198;2023-05-10T06:09:17;3.65;;;1.20;;
25990;SDS011;13779;-33.886;151.198;2023-05-10T06:11:47;7.45;;;1.50;;
25990;SDS011;13779;-33.886;151.198;2023-05-10T06:14:19;6.78;;;1.55;;
25990;SDS011;13779;-33.886;151.198;2023-05-10T06:16:50;4.68;;;1.30;;
25990;SDS011;13779;-33.886;151.198;2023-05-10T06:19:20;6.00;;;1.48;;
25990;SDS011;13779;-33.886;151.198;2023-05-10T06:21:50;15.05;;;2.13;;
25990;SDS011;13779;-33.886;151.198;2023-05-10T06:24:20;3.30;;;1.55;;
25990;SDS011;13779;-33.886;151.198;2023-05-10T06:26:50;10.15;;;1.40;;
25990;SDS011;13779;-33.886;151.198;2023-05-10T06:29:20;5.28;;;1.33;;
25990;SDS011;13779;-33.886;151.198;2023-05-10T06:31:50;6.53;;;1.50;;
25990;SDS011;13779;-33.886;151.198;2023-05-10T06:34:21;4.68;;;1.65;;
25990;SDS011;13779;-33.886;151.198;2023-05-10T06:36:51;4.25;;;1.48;;
25990;SDS011;13779;-33.886;151.198;2023-05-10T06:39:21;8.10;;;1.60;;
25990;SDS011;13779;-33.886;151.198;2023-05-10T06:41:51;4.88;;;1.77;;
25990;SDS011;13779;-33.886;151.198;2023-05-10T06:44:22;7.50;;;2.33;;
25990;SDS011;13779;-33.886;151.198;2023-05-10T06:46:53;10.18;;;2.00;;
25990;SDS011;13779;-33.886;151.198;2023-05-10T06:49:24;7.57;;;2.88;;
25990;SDS011;13779;-33.886;151.198;2023-05-10T06:51:55;5.75;;;1.75;;
25990;SDS011;13779;-33.886;151.198;2023-05-10T06:54:25;6.88;;;1.95;;
25990;SDS011;13779;-33.886;151.198;2023-05-10T06:56:56;7.10;;;1.90;;
25990;SDS011;13779;-33.886;151.198;2023-05-10T06:59:29;6.25;;;1.63;;
25990;SDS011;13779;-33.886;151.198;2023-05-10T07:02:00;7.93;;;1.85;;
25990;SDS011;13779;-33.886;151.198;2023-05-10T07:04:30;8.20;;;3.67;;
25990;SDS011;13779;-33.886;151.198;2023-05-10T07:07:01;6.60;;;2.93;;
25990;SDS011;13779;-33.886;151.198;2023-05-10T07:09:31;8.45;;;2.33;;
25990;SDS011;13779;-33.886;151.198;2023-05-10T07:12:01;11.43;;;2.20;;
25990;SDS011;13779;-33.886;151.198;2023-05-10T07:14:32;12.05;;;2.30;;
25990;SDS011;13779;-33.886;151.198;2023-05-10T07:17:02;8.63;;;2.10;;
25990;SDS011;13779;-33.886;151.198;2023-05-10T07:19:32;5.93;;;1.85;;
25990;SDS011;13779;-33.886;151.198;2023-05-10T07:22:02;8.13;;;2.20;;
25990;SDS011;13779;-33.886;151.198;2023-05-10T07:24:33;11.88;;;2.03;;
25990;SDS011;13779;-33.886;151.198;2023-05-10T07:27:04;5.50;;;2.05;;
25990;SDS011;13779;-33.886;151.198;2023-05-10T07:29:35;7.53;;;2.13;;
25990;SDS011;13779;-33.886;151.198;2023-05-10T07:32:05;10.48;;;2.30;;
25990;SDS011;13779;-33.886;151.198;2023-05-10T07:34:36;8.27;;;1.87;;
25990;SDS011;13779;-33.886;151.198;2023-05-10T07:37:06;6.30;;;1.80;;
25990;SDS011;13779;-33.886;151.198;2023-05-10T07:39:36;10.20;;;2.30;;
25990;SDS011;13779;-33.886;151.198;2023-05-10T07:42:06;9.60;;;2.60;;
25990;SDS011;13779;-33.886;151.198;2023-05-10T07:44:37;12.65;;;3.00;;
25990;SDS011;13779;-33.886;151.198;2023-05-10T07:47:07;10.30;;;2.65;;
25990;SDS011;13779;-33.886;151.198;2023-05-10T07:49:37;7.35;;;2.47;;
25990;SDS011;13779;-33.886;151.198;2023-05-10T07:52:07;11.38;;;3.00;;
25990;SDS011;13779;-33.886;151.198;2023-05-10T07:54:37;7.13;;;2.65;;
25990;SDS011;13779;-33.886;151.198;2023-05-10T07:57:07;8.60;;;2.70;;
25990;SDS011;13779;-33.886;151.198;2023-05-10T07:59:37;8.00;;;3.00;;
25990;SDS011;13779;-33.886;151.198;2023-05-10T08:02:07;6.90;;;2.22;;
25990;SDS011;13779;-33.886;151.198;2023-05-10T08:04:37;12.63;;;2.90;;
25990;SDS011;13779;-33.886;151.198;2023-05-10T08:07:08;9.05;;;2.50;;
25990;SDS011;13779;-33.886;151.198;2023-05-10T08:09:39;9.48;;;3.22;;
25990;SDS011;13779;-33.886;151.198;2023-05-10T08:12:09;7.78;;;3.00;;
25990;SDS011;13779;-33.886;151.198;2023-05-10T08:14:39;8.23;;;3.28;;
25990;SDS011;13779;-33.886;151.198;2023-05-10T08:17:10;6.95;;;2.83;;
25990;SDS011;13779;-33.886;151.198;2023-05-10T08:19:40;11.48;;;3.80;;
25990;SDS011;13779;-33.886;151.198;2023-05-10T08:22:10;9.98;;;3.50;;
25990;SDS011;13779;-33.886;151.198;2023-05-10T08:24:40;12.63;;;4.18;;
25990;SDS011;13779;-33.886;151.198;2023-05-10T08:27:11;12.38;;;3.88;;
25990;SDS011;13779;-33.886;151.198;2023-05-10T08:29:41;10.25;;;3.83;;
25990;SDS011;13779;-33.886;151.198;2023-05-10T08:32:16;12.13;;;4.10;;
25990;SDS011;13779;-33.886;151.198;2023-05-10T08:34:46;9.95;;;3.47;;
25990;SDS011;13779;-33.886;151.198;2023-05-10T08:37:16;11.00;;;4.03;;
25990;SDS011;13779;-33.886;151.198;2023-05-10T08:39:46;12.80;;;3.55;;
25990;SDS011;13779;-33.886;151.198;2023-05-10T08:42:19;13.70;;;4.03;;
25990;SDS011;13779;-33.886;151.198;2023-05-10T08:44:53;11.05;;;4.28;;
25990;SDS011;13779;-33.886;151.198;2023-05-10T08:47:25;13.90;;;4.18;;
25990;SDS011;13779;-33.886;151.198;2023-05-10T08:49:55;10.47;;;4.73;;
25990;SDS011;13779;-33.886;151.198;2023-05-10T08:52:27;10.65;;;4.55;;
25990;SDS011;13779;-33.886;151.198;2023-05-10T08:57:28;17.40;;;5.38;;
25990;SDS011;13779;-33.886;151.198;2023-05-10T08:59:59;14.20;;;5.00;;
25990;SDS011;13779;-33.886;151.198;2023-05-10T09:02:30;13.32;;;5.05;;
25990;SDS011;13779;-33.886;151.198;2023-05-10T09:05:01;15.00;;;5.22;;
25990;SDS011;13779;-33.886;151.198;2023-05-10T09:07:33;26.90;;;8.30;;
25990;SDS011;13779;-33.886;151.198;2023-05-10T09:10:04;17.13;;;5.97;;
25990;SDS011;13779;-33.886;151.198;2023-05-10T09:15:05;22.23;;;7.20;;
25990;SDS011;13779;-33.886;151.198;2023-05-10T09:20:07;17.30;;;6.18;;
25990;SDS011;13779;-33.886;151.198;2023-05-10T09:22:38;14.77;;;5.15;;
25990;SDS011;13779;-33.886;151.198;2023-05-10T09:25:09;13.73;;;4.15;;
25990;SDS011;13779;-33.886;151.198;2023-05-10T09:27:41;21.17;;;5.68;;
25990;SDS011;13779;-33.886;151.198;2023-05-10T09:30:16;18.35;;;5.95;;
25990;SDS011;13779;-33.886;151.198;2023-05-10T09:32:52;22.95;;;5.70;;
25990;SDS011;13779;-33.886;151.198;2023-05-10T09:35:25;19.08;;;6.32;;
25990;SDS011;13779;-33.886;151.198;2023-05-10T09:37:58;15.68;;;5.85;;
25990;SDS011;13779;-33.886;151.198;2023-05-10T09:40:30;13.98;;;6.03;;
25990;SDS011;13779;-33.886;151.198;2023-05-10T09:43:02;13.52;;;5.60;;
25990;SDS011;13779;-33.886;151.198;2023-05-10T09:45:39;12.88;;;5.15;;
25990;SDS011;13779;-33.886;151.198;2023-05-10T09:48:11;16.35;;;7.05;;
25990;SDS011;13779;-33.886;151.198;2023-05-10T09:50:41;26.40;;;11.10;;
25990;SDS011;13779;-33.886;151.198;2023-05-10T09:53:11;21.88;;;9.70;;
25990;SDS011;13779;-33.886;151.198;2023-05-10T09:55:45;20.73;;;6.97;;
25990;SDS011;13779;-33.886;151.198;2023-05-10T09:58:17;18.77;;;6.18;;
25990;SDS011;13779;-33.886;151.198;2023-05-10T10:00:47;22.38;;;10.32;;
25990;SDS011;13779;-33.886;151.198;2023-05-10T10:03:20;39.67;;;19.27;;
25990;SDS011;13779;-33.886;151.198;2023-05-10T10:05:54;49.92;;;22.42;;
25990;SDS011;13779;-33.886;151.198;2023-05-10T10:08:25;32.03;;;12.32;;
25990;SDS011;13779;-33.886;151.198;2023-05-10T10:10:56;26.40;;;10.55;;
25990;SDS011;13779;-33.886;151.198;2023-05-10T10:13:27;28.05;;;9.60;;
25990;SDS011;13779;-33.886;151.198;2023-05-10T10:15:58;22.02;;;9.13;;
25990;SDS011;13779;-33.886;151.198;2023-05-10T10:18:29;23.13;;;8.97;;
25990;SDS011;13779;-33.886;151.198;2023-05-10T10:21:00;21.52;;;7.97;;
25990;SDS011;13779;-33.886;151.198;2023-05-10T10:23:31;26.58;;;8.45;;
25990;SDS011;13779;-33.886;151.198;2023-05-10T10:26:04;22.77;;;7.78;;
25990;SDS011;13779;-33.886;151.198;2023-05-10T10:31:15;21.35;;;7.50;;
25990;SDS011;13779;-33.886;151.198;2023-05-10T10:36:25;22.60;;;8.63;;
25990;SDS011;13779;-33.886;151.198;2023-05-10T10:38:57;17.45;;;7.75;;
25990;SDS011;13779;-33.886;151.198;2023-05-10T10:41:30;17.85;;;7.03;;
25990;SDS011;13779;-33.886;151.198;2023-05-10T10:49:53;17.63;;;6.25;;
25990;SDS011;13779;-33.886;151.198;2023-05-10T10:52:34;17.33;;;6.07;;
25990;SDS011;13779;-33.886;151.198;2023-05-10T10:55:10;16.75;;;5.78;;
25990;SDS011;13779;-33.886;151.198;2023-05-10T10:57:55;15.82;;;5.95;;
25990;SDS011;13779;-33.886;151.198;2023-05-10T11:00:31;35.35;;;17.10;;
25990;SDS011;13779;-33.886;151.198;2023-05-10T11:11:01;19.05;;;6.53;;
25990;SDS011;13779;-33.886;151.198;2023-05-10T11:13:46;16.85;;;6.95;;
25990;SDS011;13779;-33.886;151.198;2023-05-10T11:16:20;24.95;;;8.75;;
25990;SDS011;13779;-33.886;151.198;2023-05-10T11:19:06;18.13;;;7.10;;
25990;SDS011;13779;-33.886;151.198;2023-05-10T11:21:51;17.60;;;5.88;;
25990;SDS011;13779;-33.886;151.198;2023-05-10T11:24:34;14.45;;;6.80;;
25990;SDS011;13779;-33.886;151.198;2023-05-10T11:27:05;19.83;;;7.00;;
25990;SDS011;13779;-33.886;151.198;2023-05-10T11:29:40;13.90;;;8.00;;
25990;SDS011;13779;-33.886;151.198;2023-05-10T11:32:13;17.95;;;7.13;;
25990;SDS011;13779;-33.886;151.198;2023-05-10T11:34:46;19.80;;;7.53;;
25990;SDS011;13779;-33.886;151.198;2023-05-10T11:37:17;18.55;;;6.88;;
25990;SDS011;13779;-33.886;151.198;2023-05-10T11:39:48;23.05;;;8.68;;
25990;SDS011;13779;-33.886;151.198;2023-05-10T11:42:19;18.05;;;8.13;;
25990;SDS011;13779;-33.886;151.198;2023-05-10T11:44:49;17.15;;;7.55;;
25990;SDS011;13779;-33.886;151.198;2023-05-10T11:47:20;18.87;;;8.30;;
25990;SDS011;13779;-33.886;151.198;2023-05-10T11:49:51;18.00;;;8.15;;
25990;SDS011;13779;-33.886;151.198;2023-05-10T11:52:21;16.77;;;7.20;;
25990;SDS011;13779;-33.886;151.198;2023-05-10T11:54:53;14.82;;;7.60;;
25990;SDS011;13779;-33.886;151.198;2023-05-10T11:57:25;15.93;;;7.57;;
25990;SDS011;13779;-33.886;151.198;2023-05-10T11:59:57;19.17;;;8.05;;
25990;SDS011;13779;-33.886;151.198;2023-05-10T12:02:28;17.48;;;8.05;;
25990;SDS011;13779;-33.886;151.198;2023-05-10T12:04:59;23.10;;;8.05;;
25990;SDS011;13779;-33.886;151.198;2023-05-10T12:07:30;19.08;;;8.02;;
25990;SDS011;13779;-33.886;151.198;2023-05-10T12:12:46;23.55;;;8.70;;
25990;SDS011;13779;-33.886;151.198;2023-05-10T12:15:22;19.27;;;7.60;;
25990;SDS011;13779;-33.886;151.198;2023-05-10T12:17:53;21.48;;;7.97;;
25990;SDS011;13779;-33.886;151.198;2023-05-10T12:20:27;20.67;;;7.35;;
25990;SDS011;13779;-33.886;151.198;2023-05-10T12:22:58;19.95;;;8.32;;
25990;SDS011;13779;-33.886;151.198;2023-05-10T12:25:34;20.42;;;8.20;;
25990;SDS011;13779;-33.886;151.198;2023-05-10T12:28:07;20.90;;;7.70;;
25990;SDS011;13779;-33.886;151.198;2023-05-10T12:30:38;15.23;;;7.90;;
25990;SDS011;13779;-33.886;151.198;2023-05-10T12:33:10;14.13;;;6.97;;
25990;SDS011;13779;-33.886;151.198;2023-05-10T12:35:44;21.27;;;8.18;;
25990;SDS011;13779;-33.886;151.198;2023-05-10T12:40:55;19.85;;;5.80;;
25990;SDS011;13779;-33.886;151.198;2023-05-10T12:43:26;13.93;;;7.03;;
25990;SDS011;13779;-33.886;151.198;2023-05-10T12:45:57;15.48;;;7.10;;
25990;SDS011;13779;-33.886;151.198;2023-05-10T12:48:34;17.48;;;6.20;;
25990;SDS011;13779;-33.886;151.198;2023-05-10T12:51:05;20.50;;;6.13;;
25990;SDS011;13779;-33.886;151.198;2023-05-10T12:53:45;19.17;;;7.15;;
25990;SDS011;13779;-33.886;151.198;2023-05-10T12:56:16;18.35;;;7.45;;
25990;SDS011;13779;-33.886;151.198;2023-05-10T12:58:46;17.92;;;7.30;;
25990;SDS011;13779;-33.886;151.198;2023-05-10T13:01:17;15.23;;;6.87;;
25990;SDS011;13779;-33.886;151.198;2023-05-10T13:03:47;15.68;;;7.10;;
25990;SDS011;13779;-33.886;151.198;2023-05-10T13:06:18;18.85;;;7.60;;
25990;SDS011;13779;-33.886;151.198;2023-05-10T13:08:48;21.98;;;8.43;;
25990;SDS011;13779;-33.886;151.198;2023-05-10T13:11:20;18.25;;;7.63;;
25990;SDS011;13779;-33.886;151.198;2023-05-10T13:13:50;26.50;;;7.18;;
25990;SDS011;13779;-33.886;151.198;2023-05-10T13:16:20;14.25;;;7.40;;
25990;SDS011;13779;-33.886;151.198;2023-05-10T13:18:50;17.80;;;7.55;;
25990;SDS011;13779;-33.886;151.198;2023-05-10T13:21:20;19.27;;;8.90;;
25990;SDS011;13779;-33.886;151.198;2023-05-10T13:23:52;14.43;;;7.80;;
25990;SDS011;13779;-33.886;151.198;2023-05-10T13:26:23;22.92;;;7.68;;
25990;SDS011;13779;-33.886;151.198;2023-05-10T13:28:53;20.10;;;8.77;;
25990;SDS011;13779;-33.886;151.198;2023-05-10T13:31:24;17.98;;;7.95;;
25990;SDS011;13779;-33.886;151.198;2023-05-10T13:33:54;21.38;;;8.20;;
25990;SDS011;13779;-33.886;151.198;2023-05-10T13:36:24;19.85;;;7.47;;
25990;SDS011;13779;-33.886;151.198;2023-05-10T13:38:54;16.08;;;6.95;;
25990;SDS011;13779;-33.886;151.198;2023-05-10T13:41:24;13.38;;;6.50;;
25990;SDS011;13779;-33.886;151.198;2023-05-10T13:43:55;21.15;;;7.63;;
25990;SDS011;13779;-33.886;151.198;2023-05-10T13:46:25;20.75;;;9.35;;
25990;SDS011;13779;-33.886;151.198;2023-05-10T13:48:55;21.20;;;6.70;;
25990;SDS011;13779;-33.886;151.198;2023-05-10T13:51:25;15.13;;;6.15;;
25990;SDS011;13779;-33.886;151.198;2023-05-10T13:53:55;17.83;;;8.02;;
25990;SDS011;13779;-33.886;151.198;2023-05-10T13:56:25;19.77;;;7.22;;
25990;SDS011;13779;-33.886;151.198;2023-05-10T13:58:58;21.60;;;9.02;;
25990;SDS011;13779;-33.886;151.198;2023-05-10T14:01:28;16.35;;;6.15;;
25990;SDS011;13779;-33.886;151.198;2023-05-10T14:03:58;15.27;;;6.72;;
25990;SDS011;13779;-33.886;151.198;2023-05-10T14:06:29;13.73;;;5.63;;
25990;SDS011;13779;-33.886;151.198;2023-05-10T14:08:59;15.30;;;6.55;;
25990;SDS011;13779;-33.886;151.198;2023-05-10T14:11:30;16.75;;;6.57;;
25990;SDS011;13779;-33.886;151.198;2023-05-10T14:14:01;15.13;;;7.07;;
25990;SDS011;13779;-33.886;151.198;2023-05-10T14:16:34;17.08;;;7.70;;
25990;SDS011;13779;-33.886;151.198;2023-05-10T14:19:05;15.15;;;6.03;;
25990;SDS011;13779;-33.886;151.198;2023-05-10T14:21:35;16.77;;;6.37;;
25990;SDS011;13779;-33.886;151.198;2023-05-10T14:24:06;14.18;;;6.85;;
25990;SDS011;13779;-33.886;151.198;2023-05-10T14:26:37;15.30;;;7.10;;
25990;SDS011;13779;-33.886;151.198;2023-05-10T14:29:08;18.92;;;6.93;;
25990;SDS011;13779;-33.886;151.198;2023-05-10T14:31:39;15.32;;;5.72;;
25990;SDS011;13779;-33.886;151.198;2023-05-10T14:34:10;16.08;;;6.32;;
25990;SDS011;13779;-33.886;151.198;2023-05-10T14:36:40;19.40;;;6.97;;
25990;SDS011;13779;-33.886;151.198;2023-05-10T14:39:12;17.65;;;6.88;;
25990;SDS011;13779;-33.886;151.198;2023-05-10T14:41:43;21.40;;;6.55;;
25990;SDS011;13779;-33.886;151.198;2023-05-10T14:44:16;13.35;;;5.97;;
25990;SDS011;13779;-33.886;151.198;2023-05-10T14:46:47;17.45;;;6.35;;
25990;SDS011;13779;-33.886;151.198;2023-05-10T14:49:18;15.88;;;6.10;;
25990;SDS011;13779;-33.886;151.198;2023-05-10T14:51:51;12.18;;;6.22;;
25990;SDS011;13779;-33.886;151.198;2023-05-10T14:54:21;12.82;;;6.03;;
25990;SDS011;13779;-33.886;151.198;2023-05-10T14:56:52;13.57;;;6.15;;
25990;SDS011;13779;-33.886;151.198;2023-05-10T14:59:23;10.98;;;4.63;;
25990;SDS011;13779;-33.886;151.198;2023-05-10T15:01:53;15.23;;;5.45;;
25990;SDS011;13779;-33.886;151.198;2023-05-10T15:04:23;13.07;;;6.20;;
25990;SDS011;13779;-33.886;151.198;2023-05-10T15:06:54;15.57;;;6.75;;
25990;SDS011;13779;-33.886;151.198;2023-05-10T15:09:27;16.98;;;5.65;;
25990;SDS011;13779;-33.886;151.198;2023-05-10T15:11:58;12.27;;;5.40;;
25990;SDS011;13779;-33.886;151.198;2023-05-10T15:14:28;15.02;;;6.38;;
25990;SDS011;13779;-33.886;151.198;2023-05-10T15:16:59;13.90;;;5.38;;
25990;SDS011;13779;-33.886;151.198;2023-05-10T15:19:29;17.05;;;6.85;;
25990;SDS011;13779;-33.886;151.198;2023-05-10T15:22:01;15.00;;;5.10;;
25990;SDS011;13779;-33.886;151.198;2023-05-10T15:24:33;13.07;;;6.35;;
25990;SDS011;13779;-33.886;151.198;2023-05-10T15:27:03;11.95;;;5.13;;
25990;SDS011;13779;-33.886;151.198;2023-05-10T15:29:34;12.10;;;5.50;;
25990;SDS011;13779;-33.886;151.198;2023-05-10T15:32:04;11.30;;;4.53;;
25990;SDS011;13779;-33.886;151.198;2023-05-10T15:34:34;15.38;;;5.57;;